sensor_id;sensor_type;location;lat;lon;timestamp;temperature;humidity
41985;DHT22;28319;48.116;10.818;2023-04-03T00:01:07;2.60;99.90
41985;DHT22;28319;48.116;10.818;2023-04-03T00:06:12;2.70;99.90
41985;DHT22;28319;48.116;10.818;2023-04-03T00:11:17;2.70;99.90
41985;DHT22;28319;48.116;10.818;2023-04-03T00:16:19;2.50;99.90
41985;DHT22;28319;48.116;10.818;2023-04-03T00:21:21;2.70;99.90
41985;DHT22;28319;48.116;10.818;2023-04-03T00:26:25;2.60;99.90
41985;DHT22;28319;48.116;10.818;2023-04-03T00:31:27;2.60;99.90
41985;DHT22;28319;48.116;10.818;2023-04-03T00:36:29;2.80;99.90
41985;DHT22;28319;48.116;10.818;2023-04-03T00:41:33;2.60;99.90
41985;DHT22;28319;48.116;10.818;2023-04-03T00:46:35;2.60;99.90
41985;DHT22;28319;48.116;10.818;2023-04-03T00:51:37;2.70;99.90
41985;DHT22;28319;48.116;10.818;2023-04-03T00:56:41;2.70;99.90
41985;DHT22;28319;48.116;10.818;2023-04-03T01:01:44;2.70;99.90
41985;DHT22;28319;48.116;10.818;2023-04-03T01:06:46;2.70;99.90
41985;DHT22;28319;48.116;10.818;2023-04-03T01:11:51;2.70;99.90
41985;DHT22;28319;48.116;10.818;2023-04-03T01:16:53;2.70;99.90
41985;DHT22;28319;48.116;10.818;2023-04-03T01:22:10;2.70;99.90
41985;DHT22;28319;48.116;10.818;2023-04-03T01:27:19;2.60;99.90
41985;DHT22;28319;48.116;10.818;2023-04-03T01:32:23;2.50;99.90
41985;DHT22;28319;48.116;10.818;2023-04-03T01:37:26;2.60;99.90
41985;DHT22;28319;48.116;10.818;2023-04-03T01:42:28;2.50;99.90
41985;DHT22;28319;48.116;10.818;2023-04-03T01:47:35;2.60;99.90
41985;DHT22;28319;48.116;10.818;2023-04-03T01:52:37;2.60;99.90
41985;DHT22;28319;48.116;10.818;2023-04-03T01:57:40;2.60;99.90
41985;DHT22;28319;48.116;10.818;2023-04-03T02:02:43;2.40;99.90
41985;DHT22;28319;48.116;10.818;2023-04-03T02:07:45;2.40;99.90
41985;DHT22;28319;48.116;10.818;2023-04-03T02:12:47;2.40;99.90
41985;DHT22;28319;48.116;10.818;2023-04-03T02:17:50;2.30;99.90
41985;DHT22;28319;48.116;10.818;2023-04-03T02:22:52;2.40;99.90
41985;DHT22;28319;48.116;10.818;2023-04-03T02:27:55;2.40;99.90
41985;DHT22;28319;48.116;10.818;2023-04-03T02:32:58;2.30;99.90
41985;DHT22;28319;48.116;10.818;2023-04-03T02:38:00;2.10;99.90
41985;DHT22;28319;48.116;10.818;2023-04-03T02:43:02;2.10;99.90
41985;DHT22;28319;48.116;10.818;2023-04-03T02:48:07;2.10;99.90
41985;DHT22;28319;48.116;10.818;2023-04-03T02:53:09;2.10;99.90
41985;DHT22;28319;48.116;10.818;2023-04-03T02:58:11;2.10;99.90
41985;DHT22;28319;48.116;10.818;2023-04-03T03:03:14;2.20;99.90
41985;DHT22;28319;48.116;10.818;2023-04-03T03:08:17;2.20;99.90
41985;DHT22;28319;48.116;10.818;2023-04-03T03:13:21;2.30;99.90
41985;DHT22;28319;48.116;10.818;2023-04-03T03:18:25;2.30;99.90
41985;DHT22;28319;48.116;10.818;2023-04-03T03:23:29;2.10;99.90
41985;DHT22;28319;48.116;10.818;2023-04-03T03:28:32;2.20;99.90
41985;DHT22;28319;48.116;10.818;2023-04-03T03:33:36;2.10;99.90
41985;DHT22;28319;48.116;10.818;2023-04-03T03:38:38;2.10;99.90
41985;DHT22;28319;48.116;10.818;2023-04-03T03:43:40;2.30;99.90
41985;DHT22;28319;48.116;10.818;2023-04-03T03:48:44;2.10;99.90
41985;DHT22;28319;48.116;10.818;2023-04-03T03:53:46;2.10;99.90
41985;DHT22;28319;48.116;10.818;2023-04-03T03:58:48;2.10;99.90
41985;DHT22;28319;48.116;10.818;2023-04-03T04:03:52;2.20;99.90
41985;DHT22;28319;48.116;10.818;2023-04-03T04:08:55;2.20;99.90
41985;DHT22;28319;48.116;10.818;2023-04-03T04:13:57;2.10;99.90
41985;DHT22;28319;48.116;10.818;2023-04-03T04:19:01;2.10;99.90
41985;DHT22;28319;48.116;10.818;2023-04-03T04:24:03;2.20;99.90
41985;DHT22;28319;48.116;10.818;2023-04-03T04:29:06;2.00;99.90
41985;DHT22;28319;48.116;10.818;2023-04-03T04:34:09;2.10;99.90
41985;DHT22;28319;48.116;10.818;2023-04-03T04:39:13;2.10;99.90
41985;DHT22;28319;48.116;10.818;2023-04-03T04:44:15;2.00;99.90
41985;DHT22;28319;48.116;10.818;2023-04-03T04:49:19;2.10;99.90
41985;DHT22;28319;48.116;10.818;2023-04-03T04:54:21;2.20;99.90
41985;DHT22;28319;48.116;10.818;2023-04-03T04:59:23;2.20;99.90
41985;DHT22;28319;48.116;10.818;2023-04-03T05:04:26;2.20;99.90
41985;DHT22;28319;48.116;10.818;2023-04-03T05:09:29;2.20;99.90
41985;DHT22;28319;48.116;10.818;2023-04-03T05:14:31;2.00;99.90
41985;DHT22;28319;48.116;10.818;2023-04-03T05:19:34;2.10;99.90
41985;DHT22;28319;48.116;10.818;2023-04-03T05:24:36;2.10;99.90
41985;DHT22;28319;48.116;10.818;2023-04-03T05:29:38;2.10;99.90
41985;DHT22;28319;48.116;10.818;2023-04-03T05:34:45;2.10;99.90
41985;DHT22;28319;48.116;10.818;2023-04-03T05:39:47;2.10;99.90
41985;DHT22;28319;48.116;10.818;2023-04-03T05:44:49;2.10;99.90
41985;DHT22;28319;48.116;10.818;2023-04-03T05:49:53;2.10;99.90
41985;DHT22;28319;48.116;10.818;2023-04-03T05:54:55;2.20;99.90
41985;DHT22;28319;48.116;10.818;2023-04-03T05:59:57;2.10;99.90
41985;DHT22;28319;48.116;10.818;2023-04-03T06:05:01;2.10;99.90
41985;DHT22;28319;48.116;10.818;2023-04-03T06:10:03;2.20;99.90
41985;DHT22;28319;48.116;10.818;2023-04-03T06:15:07;2.20;99.90
41985;DHT22;28319;48.116;10.818;2023-04-03T06:20:13;2.10;99.90
41985;DHT22;28319;48.116;10.818;2023-04-03T06:25:15;2.20;99.90
41985;DHT22;28319;48.116;10.818;2023-04-03T06:30:18;2.20;99.90
41985;DHT22;28319;48.116;10.818;2023-04-03T06:35:21;2.30;99.90
41985;DHT22;28319;48.116;10.818;2023-04-03T06:40:25;2.30;99.90
41985;DHT22;28319;48.116;10.818;2023-04-03T06:45:28;2.20;99.90
41985;DHT22;28319;48.116;10.818;2023-04-03T06:50:31;2.20;99.90
41985;DHT22;28319;48.116;10.818;2023-04-03T06:55:34;2.20;99.90
41985;DHT22;28319;48.116;10.818;2023-04-03T07:00:36;2.30;99.90
41985;DHT22;28319;48.116;10.818;2023-04-03T07:05:40;2.50;99.90
41985;DHT22;28319;48.116;10.818;2023-04-03T07:10:45;2.50;99.90
41985;DHT22;28319;48.116;10.818;2023-04-03T07:15:47;2.40;99.90
41985;DHT22;28319;48.116;10.818;2023-04-03T07:20:50;2.40;99.90
41985;DHT22;28319;48.116;10.818;2023-04-03T07:25:54;2.60;99.90
41985;DHT22;28319;48.116;10.818;2023-04-03T07:31:00;2.60;99.90
41985;DHT22;28319;48.116;10.818;2023-04-03T07:36:05;2.70;99.90
41985;DHT22;28319;48.116;10.818;2023-04-03T07:41:11;2.70;99.90
41985;DHT22;28319;48.116;10.818;2023-04-03T07:46:14;2.80;99.90
41985;DHT22;28319;48.116;10.818;2023-04-03T07:51:19;2.70;99.90
41985;DHT22;28319;48.116;10.818;2023-04-03T07:56:21;2.80;99.90
41985;DHT22;28319;48.116;10.818;2023-04-03T08:01:23;2.90;99.90
41985;DHT22;28319;48.116;10.818;2023-04-03T08:06:27;3.00;99.90
41985;DHT22;28319;48.116;10.818;2023-04-03T08:11:31;3.20;99.90
41985;DHT22;28319;48.116;10.818;2023-04-03T08:16:33;3.20;99.90
41985;DHT22;28319;48.116;10.818;2023-04-03T08:21:37;3.20;99.90
41985;DHT22;28319;48.116;10.818;2023-04-03T08:26:39;3.40;99.90
41985;DHT22;28319;48.116;10.818;2023-04-03T08:31:41;3.40;99.90
41985;DHT22;28319;48.116;10.818;2023-04-03T08:36:45;3.50;99.90
41985;DHT22;28319;48.116;10.818;2023-04-03T08:41:48;3.50;99.90
41985;DHT22;28319;48.116;10.818;2023-04-03T08:47:01;3.50;99.90
41985;DHT22;28319;48.116;10.818;2023-04-03T08:52:10;3.60;99.90
41985;DHT22;28319;48.116;10.818;2023-04-03T08:57:13;3.70;99.90
41985;DHT22;28319;48.116;10.818;2023-04-03T09:02:24;3.70;99.90
41985;DHT22;28319;48.116;10.818;2023-04-03T09:07:38;3.70;99.90
41985;DHT22;28319;48.116;10.818;2023-04-03T09:12:43;3.90;99.90
41985;DHT22;28319;48.116;10.818;2023-04-03T09:17:57;3.90;99.90
41985;DHT22;28319;48.116;10.818;2023-04-03T09:23:04;3.80;99.90
41985;DHT22;28319;48.116;10.818;2023-04-03T09:28:12;3.90;99.90
41985;DHT22;28319;48.116;10.818;2023-04-03T09:33:14;3.80;99.90
41985;DHT22;28319;48.116;10.818;2023-04-03T09:38:22;3.90;99.90
41985;DHT22;28319;48.116;10.818;2023-04-03T09:43:30;4.00;99.90
41985;DHT22;28319;48.116;10.818;2023-04-03T09:48:32;4.10;99.90
41985;DHT22;28319;48.116;10.818;2023-04-03T09:53:38;4.20;99.90
41985;DHT22;28319;48.116;10.818;2023-04-03T09:58:42;4.40;99.90
41985;DHT22;28319;48.116;10.818;2023-04-03T10:03:44;4.50;99.90
41985;DHT22;28319;48.116;10.818;2023-04-03T10:08:59;4.30;99.90
41985;DHT22;28319;48.116;10.818;2023-04-03T10:14:03;4.40;99.90
41985;DHT22;28319;48.116;10.818;2023-04-03T10:19:20;4.40;99.90
41985;DHT22;28319;48.116;10.818;2023-04-03T10:24:34;4.50;99.90
41985;DHT22;28319;48.116;10.818;2023-04-03T10:29:45;4.50;99.90
41985;DHT22;28319;48.116;10.818;2023-04-03T10:34:51;4.60;99.90
41985;DHT22;28319;48.116;10.818;2023-04-03T10:40:02;4.80;99.90
41985;DHT22;28319;48.116;10.818;2023-04-03T10:45:26;4.60;99.90
41985;DHT22;28319;48.116;10.818;2023-04-03T10:50:39;4.50;99.90
41985;DHT22;28319;48.116;10.818;2023-04-03T10:55:53;4.50;99.90
41985;DHT22;28319;48.116;10.818;2023-04-03T11:01:00;4.50;99.90
41985;DHT22;28319;48.116;10.818;2023-04-03T11:06:08;4.50;99.90
41985;DHT22;28319;48.116;10.818;2023-04-03T11:11:16;4.40;99.90
41985;DHT22;28319;48.116;10.818;2023-04-03T11:16:25;4.40;99.90
41985;DHT22;28319;48.116;10.818;2023-04-03T11:21:31;4.50;99.90
41985;DHT22;28319;48.116;10.818;2023-04-03T11:26:40;4.60;99.90
41985;DHT22;28319;48.116;10.818;2023-04-03T11:32:07;4.80;99.90
41985;DHT22;28319;48.116;10.818;2023-04-03T11:37:15;4.80;99.90
41985;DHT22;28319;48.116;10.818;2023-04-03T11:42:31;4.60;99.90
41985;DHT22;28319;48.116;10.818;2023-04-03T11:47:44;4.50;99.90
41985;DHT22;28319;48.116;10.818;2023-04-03T11:53:01;4.40;99.90
41985;DHT22;28319;48.116;10.818;2023-04-03T11:58:12;4.30;99.90
41985;DHT22;28319;48.116;10.818;2023-04-03T12:08:54;4.40;99.90
41985;DHT22;28319;48.116;10.818;2023-04-03T12:14:12;4.40;99.90
41985;DHT22;28319;48.116;10.818;2023-04-03T12:19:31;4.40;99.90
41985;DHT22;28319;48.116;10.818;2023-04-03T12:24:34;4.60;99.90
41985;DHT22;28319;48.116;10.818;2023-04-03T12:29:43;4.60;99.90
41985;DHT22;28319;48.116;10.818;2023-04-03T12:35:03;4.40;99.90
41985;DHT22;28319;48.116;10.818;2023-04-03T12:40:16;4.40;99.90
41985;DHT22;28319;48.116;10.818;2023-04-03T12:45:40;4.20;99.90
41985;DHT22;28319;48.116;10.818;2023-04-03T12:50:44;4.20;99.90
41985;DHT22;28319;48.116;10.818;2023-04-03T12:55:47;4.40;99.90
41985;DHT22;28319;48.116;10.818;2023-04-03T13:01:01;4.40;99.90
41985;DHT22;28319;48.116;10.818;2023-04-03T13:06:04;4.90;99.90
41985;DHT22;28319;48.116;10.818;2023-04-03T13:11:09;4.50;99.90
41985;DHT22;28319;48.116;10.818;2023-04-03T13:16:17;4.30;99.90
41985;DHT22;28319;48.116;10.818;2023-04-03T13:21:22;4.30;99.90
41985;DHT22;28319;48.116;10.818;2023-04-03T13:26:28;4.30;99.90
41985;DHT22;28319;48.116;10.818;2023-04-03T13:31:34;4.40;99.90
41985;DHT22;28319;48.116;10.818;2023-04-03T13:36:38;4.40;99.90
41985;DHT22;28319;48.116;10.818;2023-04-03T13:41:43;4.60;99.90
41985;DHT22;28319;48.116;10.818;2023-04-03T13:46:48;4.80;99.90
41985;DHT22;28319;48.116;10.818;2023-04-03T13:51:50;4.70;99.90
41985;DHT22;28319;48.116;10.818;2023-04-03T13:56:54;4.90;99.90
41985;DHT22;28319;48.116;10.818;2023-04-03T14:02:14;5.00;99.90
41985;DHT22;28319;48.116;10.818;2023-04-03T14:07:18;5.20;99.90
41985;DHT22;28319;48.116;10.818;2023-04-03T14:12:26;5.30;99.90
41985;DHT22;28319;48.116;10.818;2023-04-03T14:17:30;5.60;99.90
41985;DHT22;28319;48.116;10.818;2023-04-03T14:22:33;5.90;99.90
41985;DHT22;28319;48.116;10.818;2023-04-03T14:27:38;6.10;99.90
41985;DHT22;28319;48.116;10.818;2023-04-03T14:32:42;5.70;99.90
41985;DHT22;28319;48.116;10.818;2023-04-03T14:37:45;5.40;99.90
41985;DHT22;28319;48.116;10.818;2023-04-03T14:42:49;5.20;99.90
41985;DHT22;28319;48.116;10.818;2023-04-03T14:47:54;5.00;99.90
41985;DHT22;28319;48.116;10.818;2023-04-03T14:52:59;4.90;99.90
41985;DHT22;28319;48.116;10.818;2023-04-03T14:58:01;4.80;99.90
41985;DHT22;28319;48.116;10.818;2023-04-03T15:03:05;4.70;99.90
41985;DHT22;28319;48.116;10.818;2023-04-03T15:08:17;4.80;99.90
41985;DHT22;28319;48.116;10.818;2023-04-03T15:13:20;4.90;99.90
41985;DHT22;28319;48.116;10.818;2023-04-03T15:18:26;4.90;99.90
41985;DHT22;28319;48.116;10.818;2023-04-03T15:23:28;5.00;99.90
41985;DHT22;28319;48.116;10.818;2023-04-03T15:28:33;5.20;99.90
41985;DHT22;28319;48.116;10.818;2023-04-03T15:33:37;5.20;98.40
41985;DHT22;28319;48.116;10.818;2023-04-03T15:38:39;5.50;98.70
41985;DHT22;28319;48.116;10.818;2023-04-03T15:43:41;5.60;97.90
41985;DHT22;28319;48.116;10.818;2023-04-03T15:48:45;5.70;97.80
41985;DHT22;28319;48.116;10.818;2023-04-03T15:53:47;5.70;95.80
41985;DHT22;28319;48.116;10.818;2023-04-03T15:58:49;5.50;95.50
41985;DHT22;28319;48.116;10.818;2023-04-03T16:03:52;5.40;96.50
41985;DHT22;28319;48.116;10.818;2023-04-03T16:08:55;5.20;97.10
41985;DHT22;28319;48.116;10.818;2023-04-03T16:13:58;5.00;97.70
41985;DHT22;28319;48.116;10.818;2023-04-03T16:19:02;5.00;97.00
41985;DHT22;28319;48.116;10.818;2023-04-03T16:24:05;4.90;95.40
41985;DHT22;28319;48.116;10.818;2023-04-03T16:29:07;4.80;96.50
41985;DHT22;28319;48.116;10.818;2023-04-03T16:34:11;4.70;94.90
41985;DHT22;28319;48.116;10.818;2023-04-03T16:39:14;4.70;95.40
41985;DHT22;28319;48.116;10.818;2023-04-03T16:44:16;4.60;94.70
41985;DHT22;28319;48.116;10.818;2023-04-03T16:49:21;4.40;93.50
41985;DHT22;28319;48.116;10.818;2023-04-03T16:54:23;4.40;94.20
41985;DHT22;28319;48.116;10.818;2023-04-03T16:59:25;4.30;93.60
41985;DHT22;28319;48.116;10.818;2023-04-03T17:04:29;4.20;95.40
41985;DHT22;28319;48.116;10.818;2023-04-03T17:09:31;4.10;95.00
41985;DHT22;28319;48.116;10.818;2023-04-03T17:14:34;4.00;95.10
41985;DHT22;28319;48.116;10.818;2023-04-03T17:19:38;3.90;95.80
41985;DHT22;28319;48.116;10.818;2023-04-03T17:24:41;3.90;97.00
41985;DHT22;28319;48.116;10.818;2023-04-03T17:29:44;3.90;97.70
41985;DHT22;28319;48.116;10.818;2023-04-03T17:34:47;3.90;97.30
41985;DHT22;28319;48.116;10.818;2023-04-03T17:39:50;3.60;96.70
41985;DHT22;28319;48.116;10.818;2023-04-03T17:44:52;3.50;97.80
41985;DHT22;28319;48.116;10.818;2023-04-03T17:49:55;3.50;98.30
41985;DHT22;28319;48.116;10.818;2023-04-03T17:54:58;3.40;98.00
41985;DHT22;28319;48.116;10.818;2023-04-03T18:00:00;3.30;98.40
41985;DHT22;28319;48.116;10.818;2023-04-03T18:05:06;3.20;98.30
41985;DHT22;28319;48.116;10.818;2023-04-03T18:10:10;3.00;97.60
41985;DHT22;28319;48.116;10.818;2023-04-03T18:15:12;3.00;98.20
41985;DHT22;28319;48.116;10.818;2023-04-03T18:20:16;2.90;98.30
41985;DHT22;28319;48.116;10.818;2023-04-03T18:25:18;2.80;98.10
41985;DHT22;28319;48.116;10.818;2023-04-03T18:30:22;2.70;98.20
41985;DHT22;28319;48.116;10.818;2023-04-03T18:35:27;2.70;98.10
41985;DHT22;28319;48.116;10.818;2023-04-03T18:40:30;2.60;97.90
41985;DHT22;28319;48.116;10.818;2023-04-03T18:45:34;2.50;97.60
41985;DHT22;28319;48.116;10.818;2023-04-03T18:50:37;2.40;98.10
41985;DHT22;28319;48.116;10.818;2023-04-03T18:55:40;2.40;98.50
41985;DHT22;28319;48.116;10.818;2023-04-03T19:00:42;2.40;98.80
41985;DHT22;28319;48.116;10.818;2023-04-03T19:05:46;2.20;98.70
41985;DHT22;28319;48.116;10.818;2023-04-03T19:10:49;2.20;99.30
41985;DHT22;28319;48.116;10.818;2023-04-03T19:15:51;2.20;99.50
41985;DHT22;28319;48.116;10.818;2023-04-03T19:20:59;2.10;99.20
41985;DHT22;28319;48.116;10.818;2023-04-03T19:26:03;2.20;99.70
41985;DHT22;28319;48.116;10.818;2023-04-03T19:31:10;2.00;99.60
41985;DHT22;28319;48.116;10.818;2023-04-03T19:36:14;2.00;99.90
41985;DHT22;28319;48.116;10.818;2023-04-03T19:41:20;1.90;99.90
41985;DHT22;28319;48.116;10.818;2023-04-03T19:46:25;1.90;99.90
41985;DHT22;28319;48.116;10.818;2023-04-03T19:51:30;1.90;99.90
41985;DHT22;28319;48.116;10.818;2023-04-03T19:56:32;1.80;99.90
41985;DHT22;28319;48.116;10.818;2023-04-03T20:01:34;1.80;99.90
41985;DHT22;28319;48.116;10.818;2023-04-03T20:06:38;1.70;99.90
41985;DHT22;28319;48.116;10.818;2023-04-03T20:11:42;1.70;99.90
41985;DHT22;28319;48.116;10.818;2023-04-03T20:16:46;1.70;99.90
41985;DHT22;28319;48.116;10.818;2023-04-03T20:21:51;1.70;99.90
41985;DHT22;28319;48.116;10.818;2023-04-03T20:26:53;1.50;99.90
41985;DHT22;28319;48.116;10.818;2023-04-03T20:31:57;1.50;99.90
41985;DHT22;28319;48.116;10.818;2023-04-03T20:37:00;1.40;99.90
41985;DHT22;28319;48.116;10.818;2023-04-03T20:42:03;1.50;99.90
41985;DHT22;28319;48.116;10.818;2023-04-03T20:47:05;1.20;99.90
41985;DHT22;28319;48.116;10.818;2023-04-03T20:52:10;1.20;99.90
41985;DHT22;28319;48.116;10.818;2023-04-03T20:57:12;1.10;99.90
41985;DHT22;28319;48.116;10.818;2023-04-03T21:02:14;1.10;99.90
41985;DHT22;28319;48.116;10.818;2023-04-03T21:24:07;0.80;99.90
41985;DHT22;28319;48.116;10.818;2023-04-03T21:29:10;0.70;99.90
41985;DHT22;28319;48.116;10.818;2023-04-03T21:34:13;0.70;99.90
41985;DHT22;28319;48.116;10.818;2023-04-03T21:39:17;0.60;99.90
41985;DHT22;28319;48.116;10.818;2023-04-03T21:44:19;0.50;99.90
41985;DHT22;28319;48.116;10.818;2023-04-03T21:49:22;0.50;99.90
41985;DHT22;28319;48.116;10.818;2023-04-03T21:54:26;0.40;99.90
41985;DHT22;28319;48.116;10.818;2023-04-03T21:59:28;0.40;99.90
41985;DHT22;28319;48.116;10.818;2023-04-03T22:04:30;0.20;99.90
41985;DHT22;28319;48.116;10.818;2023-04-03T22:09:34;0.30;99.90
41985;DHT22;28319;48.116;10.818;2023-04-03T22:14:37;0.10;99.90
41985;DHT22;28319;48.116;10.818;2023-04-03T22:19:41;0.10;99.90
41985;DHT22;28319;48.116;10.818;2023-04-03T22:24:47;0.30;99.90
41985;DHT22;28319;48.116;10.818;2023-04-03T22:29:49;-0.10;99.90
41985;DHT22;28319;48.116;10.818;2023-04-03T22:34:52;-0.10;99.90
41985;DHT22;28319;48.116;10.818;2023-04-03T22:39:56;-0.20;99.90
41985;DHT22;28319;48.116;10.818;2023-04-03T22:44:58;-0.20;99.90
41985;DHT22;28319;48.116;10.818;2023-04-03T22:50:01;-0.20;99.90
41985;DHT22;28319;48.116;10.818;2023-04-03T22:55:05;-0.30;99.90
41985;DHT22;28319;48.116;10.818;2023-04-03T23:00:09;-0.30;99.90
41985;DHT22;28319;48.116;10.818;2023-04-03T23:05:12;-0.50;99.90
41985;DHT22;28319;48.116;10.818;2023-04-03T23:10:17;-0.40;99.90
41985;DHT22;28319;48.116;10.818;2023-04-03T23:15:19;-0.50;99.90
41985;DHT22;28319;48.116;10.818;2023-04-03T23:20:21;-0.60;99.90
41985;DHT22;28319;48.116;10.818;2023-04-03T23:25:25;-0.50;99.90
41985;DHT22;28319;48.116;10.818;2023-04-03T23:30:27;-0.60;99.90
41985;DHT22;28319;48.116;10.818;2023-04-03T23:35:30;-0.60;99.90
41985;DHT22;28319;48.116;10.818;2023-04-03T23:40:33;-0.50;99.90
41985;DHT22;28319;48.116;10.818;2023-04-03T23:45:35;-0.60;99.90
41985;DHT22;28319;48.116;10.818;2023-04-03T23:50:38;-0.70;99.90
41985;DHT22;28319;48.116;10.818;2023-04-03T23:55:42;-0.70;99.90
